createdAt,value
2022-07-29T00:02:17.610Z,18.05
2022-07-29T00:05:20.340Z,18.16
2022-07-29T00:08:23.080Z,18.05
2022-07-29T00:11:26.553Z,17.71
2022-07-29T00:14:30.748Z,18.00
2022-07-29T00:17:35.001Z,18.07
2022-07-29T00:20:37.772Z,18.07
2022-07-29T00:23:43.216Z,18.00
2022-07-29T00:26:45.968Z,18.04
2022-07-29T00:29:50.263Z,17.72
2022-07-29T00:32:53.014Z,18.24
2022-07-29T00:35:55.727Z,17.74
2022-07-29T00:38:59.964Z,17.90
2022-07-29T00:42:04.634Z,17.55
2022-07-29T00:45:09.243Z,18.01
2022-07-29T00:48:11.999Z,18.05
2022-07-29T00:51:15.511Z,17.84
2022-07-29T00:54:18.672Z,17.82
2022-07-29T00:57:22.236Z,17.83
2022-07-29T01:00:27.363Z,17.78
2022-07-29T01:03:30.176Z,17.45
2022-07-29T01:06:32.919Z,17.89
2022-07-29T01:09:46.747Z,17.71
2022-07-29T01:12:51.179Z,17.51
2022-07-29T01:15:58.718Z,17.45
2022-07-29T01:19:07.265Z,17.66
2022-07-29T01:22:16.943Z,17.07
2022-07-29T01:25:32.320Z,17.33
2022-07-29T01:28:51.607Z,17.47
2022-07-29T01:31:59.009Z,17.07
2022-07-29T01:35:06.774Z,17.05
2022-07-29T01:38:11.723Z,16.82
2022-07-29T01:41:17.221Z,16.85
2022-07-29T01:44:25.155Z,16.79
2022-07-29T01:47:35.707Z,16.85
2022-07-29T01:50:42.384Z,16.99
2022-07-29T01:53:48.300Z,17.24
2022-07-29T01:56:53.123Z,16.89
2022-07-29T01:59:58.367Z,16.90
2022-07-29T02:03:03.341Z,17.11
2022-07-29T02:06:07.689Z,16.93
2022-07-29T02:09:11.783Z,16.94
2022-07-29T02:12:16.283Z,16.65
2022-07-29T02:15:21.200Z,16.55
2022-07-29T02:18:25.111Z,16.26
2022-07-29T02:21:29.114Z,16.07
2022-07-29T02:24:32.896Z,15.96
2022-07-29T02:27:36.909Z,16.07
2022-07-29T02:30:42.389Z,16.51
2022-07-29T02:33:45.249Z,16.46
2022-07-29T02:36:49.479Z,16.50
2022-07-29T02:39:54.407Z,16.78
2022-07-29T02:42:57.498Z,16.76
2022-07-29T02:46:03.174Z,17.31
2022-07-29T02:49:11.699Z,16.55
2022-07-29T02:52:18.047Z,16.67
2022-07-29T02:55:25.081Z,16.72
2022-07-29T02:58:29.624Z,16.71
2022-07-29T03:01:35.205Z,16.95
2022-07-29T03:04:39.895Z,17.14
2022-07-29T03:07:43.329Z,17.04
2022-07-29T03:10:48.185Z,17.06
2022-07-29T03:13:51.174Z,17.28
2022-07-29T03:16:55.593Z,16.93
2022-07-29T03:19:58.540Z,17.36
2022-07-29T03:23:01.581Z,17.32
2022-07-29T03:26:04.565Z,17.24
2022-07-29T03:29:07.347Z,17.70
2022-07-29T03:32:12.348Z,17.57
2022-07-29T03:35:15.127Z,18.04
2022-07-29T03:38:17.833Z,17.98
2022-07-29T03:41:22.370Z,18.00
2022-07-29T03:44:26.019Z,17.89
2022-07-29T03:47:50.185Z,18.22
2022-07-29T03:50:53.617Z,18.44
2022-07-29T03:53:56.575Z,18.96
2022-07-29T03:57:01.596Z,18.08
2022-07-29T04:00:06.377Z,18.43
2022-07-29T04:03:11.693Z,19.40
2022-07-29T04:06:14.909Z,18.42
2022-07-29T04:09:17.648Z,18.54
2022-07-29T04:12:22.027Z,18.88
2022-07-29T04:15:24.813Z,18.74
2022-07-29T04:18:29.038Z,18.96
2022-07-29T04:21:31.748Z,19.20
2022-07-29T04:24:34.573Z,18.95
2022-07-29T04:27:57.338Z,19.40
2022-07-29T04:31:00.195Z,19.00
2022-07-29T04:34:04.370Z,19.25
2022-07-29T04:37:07.077Z,19.20
2022-07-29T04:40:10.527Z,19.19
2022-07-29T04:43:14.270Z,19.45
2022-07-29T04:46:18.319Z,19.61
2022-07-29T04:49:22.621Z,19.92
2022-07-29T04:52:25.483Z,19.88
2022-07-29T04:55:28.238Z,20.32
2022-07-29T04:58:31.059Z,20.19
2022-07-29T05:01:33.856Z,20.30
2022-07-29T05:04:38.104Z,20.35
2022-07-29T05:07:40.779Z,20.55
2022-07-29T05:10:43.561Z,20.94
2022-07-29T05:13:47.138Z,20.80
2022-07-29T05:16:52.096Z,20.92
2022-07-29T05:19:56.173Z,20.95
2022-07-29T05:22:59.019Z,20.56
2022-07-29T05:26:02.104Z,21.73
2022-07-29T05:29:04.862Z,21.06
2022-07-29T05:32:07.847Z,21.34
2022-07-29T05:35:13.450Z,21.10
2022-07-29T05:38:16.172Z,21.67
2022-07-29T05:41:18.971Z,22.03
2022-07-29T05:44:21.754Z,21.93
2022-07-29T05:47:28.206Z,21.91
2022-07-29T05:50:32.403Z,22.01
2022-07-29T05:53:35.228Z,21.85
2022-07-29T05:56:38.059Z,22.24
2022-07-29T05:59:40.786Z,22.35
2022-07-29T06:02:43.605Z,22.67
2022-07-29T06:05:47.749Z,22.23
2022-07-29T06:08:50.487Z,22.13
2022-07-29T06:11:53.387Z,22.52
2022-07-29T06:14:56.162Z,22.42
2022-07-29T06:18:01.359Z,22.54
2022-07-29T06:21:09.644Z,22.83
2022-07-29T06:24:13.313Z,22.79
2022-07-29T06:27:17.314Z,22.76
2022-07-29T06:30:20.132Z,22.79
2022-07-29T06:33:22.953Z,23.14
2022-07-29T06:36:27.381Z,22.84
2022-07-29T06:39:30.741Z,23.22
2022-07-29T06:42:33.580Z,23.01
2022-07-29T06:45:36.500Z,22.94
2022-07-29T06:48:39.620Z,23.27
2022-07-29T06:51:43.755Z,23.20
2022-07-29T06:54:49.109Z,23.36
2022-07-29T06:57:52.324Z,22.98
2022-07-29T07:00:55.425Z,23.19
2022-07-29T07:03:58.543Z,23.56
2022-07-29T07:07:02.597Z,23.71
2022-07-29T07:10:06.056Z,23.59
2022-07-29T07:13:08.890Z,23.77
2022-07-29T07:16:11.714Z,23.98
2022-07-29T07:19:14.463Z,23.68
2022-07-29T07:22:18.704Z,23.89
2022-07-29T07:25:21.553Z,24.00
2022-07-29T07:28:25.150Z,23.98
2022-07-29T07:31:28.198Z,23.90
2022-07-29T07:34:31.465Z,24.28
2022-07-29T07:37:35.714Z,24.16
2022-07-29T07:40:38.475Z,23.86
2022-07-29T07:43:41.257Z,24.41
2022-07-29T07:46:45.869Z,24.41
2022-07-29T07:49:48.716Z,24.53
2022-07-29T07:52:53.666Z,24.42
2022-07-29T07:56:12.661Z,24.44
2022-07-29T07:59:15.716Z,24.55
2022-07-29T08:02:18.622Z,24.32
2022-07-29T08:05:21.463Z,24.69
2022-07-29T08:08:25.588Z,24.58
2022-07-29T08:11:28.464Z,24.69
2022-07-29T08:14:36.776Z,24.80
2022-07-29T08:17:39.593Z,24.65
2022-07-29T08:20:42.810Z,24.74
2022-07-29T08:23:55.863Z,25.00
2022-07-29T08:27:01.663Z,24.95
2022-07-29T08:30:04.937Z,24.81
2022-07-29T08:33:07.776Z,24.93
2022-07-29T08:36:11.844Z,24.88
2022-07-29T08:39:15.964Z,24.97
2022-07-29T08:42:18.839Z,25.06
2022-07-29T08:45:22.581Z,24.93
2022-07-29T08:48:26.343Z,25.11
2022-07-29T08:51:29.611Z,25.17
2022-07-29T08:54:34.174Z,24.95
2022-07-29T08:57:37.470Z,25.25
2022-07-29T09:00:43.958Z,25.17
2022-07-29T09:03:48.585Z,25.12
2022-07-29T09:06:53.579Z,25.34
2022-07-29T09:09:58.396Z,25.63
2022-07-29T09:13:01.176Z,25.86
2022-07-29T09:16:08.962Z,26.23
2022-07-29T09:19:21.286Z,27.25
2022-07-29T09:22:31.209Z,29.61
2022-07-29T09:25:40.041Z,31.45
2022-07-29T09:28:44.128Z,32.53
2022-07-29T09:31:48.043Z,33.44
2022-07-29T09:34:51.661Z,33.49
2022-07-29T09:37:58.643Z,34.78
2022-07-29T09:41:06.039Z,34.54
2022-07-29T09:44:09.424Z,35.28
2022-07-29T09:47:12.414Z,34.94
2022-07-29T09:50:15.762Z,35.67
2022-07-29T09:53:32.402Z,34.80
2022-07-29T09:56:43.484Z,34.60
2022-07-29T09:59:57.610Z,34.86
2022-07-29T10:03:03.519Z,34.16
2022-07-29T10:06:08.128Z,33.96
2022-07-29T10:09:11.701Z,33.58
2022-07-29T10:12:15.806Z,30.44
2022-07-29T10:15:18.993Z,29.02
2022-07-29T10:18:22.109Z,28.52
2022-07-29T10:21:36.307Z,28.17
2022-07-29T10:24:39.962Z,27.98
2022-07-29T10:27:46.783Z,27.96
2022-07-29T10:30:52.560Z,27.93
2022-07-29T10:34:03.116Z,27.93
2022-07-29T10:37:10.723Z,27.91
2022-07-29T10:40:36.193Z,27.77
2022-07-29T10:43:43.381Z,27.70
2022-07-29T10:46:47.313Z,27.70
2022-07-29T10:50:01.088Z,27.69
2022-07-29T10:53:04.910Z,27.71
2022-07-29T10:56:25.424Z,27.78
2022-07-29T10:59:36.456Z,27.88
2022-07-29T11:02:46.538Z,27.79
2022-07-29T11:05:56.588Z,27.78
2022-07-29T11:09:18.155Z,27.73
2022-07-29T11:12:47.852Z,27.86
2022-07-29T11:15:58.873Z,27.99
2022-07-29T11:19:26.347Z,27.96
2022-07-29T11:22:36.203Z,27.96
2022-07-29T11:25:50.354Z,27.96
2022-07-29T11:29:07.387Z,28.25
2022-07-29T11:32:15.795Z,28.25
2022-07-29T11:35:37.568Z,28.21
2022-07-29T11:38:42.483Z,28.19
2022-07-29T11:41:45.302Z,28.20
2022-07-29T11:44:56.178Z,28.36
2022-07-29T11:48:28.541Z,28.30
2022-07-29T11:51:32.923Z,28.34
2022-07-29T11:58:03.801Z,28.48
2022-07-29T12:01:10.182Z,28.52
2022-07-29T12:04:14.362Z,28.52
2022-07-29T12:07:02.300Z,28.51
2022-07-29T12:07:17.205Z,28.47
2022-07-29T12:10:30.017Z,28.50
2022-07-29T12:13:40.597Z,28.57
2022-07-29T12:16:43.415Z,28.53
2022-07-29T12:19:48.748Z,28.37
2022-07-29T12:22:55.557Z,28.36
2022-07-29T12:25:59.911Z,28.48
2022-07-29T12:29:03.205Z,28.68
2022-07-29T12:32:14.606Z,28.49
2022-07-29T12:35:23.687Z,28.55
2022-07-29T12:38:26.568Z,28.59
2022-07-29T12:41:29.820Z,28.49
2022-07-29T12:44:45.391Z,28.64
2022-07-29T12:47:54.635Z,28.78
2022-07-29T12:50:59.701Z,28.82
2022-07-29T12:54:06.722Z,28.80
2022-07-29T12:57:09.697Z,28.77
2022-07-29T13:00:24.764Z,28.86
2022-07-29T13:03:27.700Z,28.93
2022-07-29T13:06:32.880Z,28.98
2022-07-29T13:09:38.886Z,29.09
2022-07-29T13:12:42.418Z,29.86
2022-07-29T13:15:47.910Z,31.11
2022-07-29T13:18:50.773Z,30.54
2022-07-29T13:21:55.283Z,30.55
2022-07-29T13:24:59.946Z,30.02
2022-07-29T13:28:02.812Z,30.19
2022-07-29T13:31:06.957Z,30.62
2022-07-29T13:34:09.744Z,30.49
2022-07-29T13:37:13.933Z,30.24
2022-07-29T13:40:16.704Z,30.27
2022-07-29T13:43:19.440Z,30.48
2022-07-29T13:46:22.361Z,30.16
2022-07-29T13:49:25.192Z,30.20
2022-07-29T13:52:29.402Z,30.03
2022-07-29T13:55:32.334Z,30.36
2022-07-29T13:58:35.503Z,29.74
2022-07-29T14:01:38.330Z,29.65
2022-07-29T14:04:41.737Z,29.69
2022-07-29T14:07:45.892Z,30.58
2022-07-29T14:10:48.648Z,30.99
2022-07-29T14:13:54.036Z,29.81
2022-07-29T14:16:57.172Z,29.41
2022-07-29T14:19:59.954Z,29.24
2022-07-29T14:23:04.109Z,29.28
2022-07-29T14:26:08.745Z,29.35
2022-07-29T14:29:15.205Z,29.03
2022-07-29T14:32:18.022Z,29.36
2022-07-29T14:35:20.845Z,28.96
2022-07-29T14:38:26.988Z,29.01
2022-07-29T14:41:30.580Z,29.10
2022-07-29T14:44:33.353Z,28.68
2022-07-29T14:47:36.273Z,28.77
2022-07-29T14:50:39.081Z,28.94
2022-07-29T14:53:43.159Z,28.99
2022-07-29T14:56:46.491Z,28.64
2022-07-29T14:59:49.824Z,28.78
2022-07-29T15:03:01.944Z,28.49
2022-07-29T15:06:06.220Z,28.44
2022-07-29T15:09:10.372Z,28.13
2022-07-29T15:12:13.173Z,28.01
2022-07-29T15:15:15.947Z,27.94
2022-07-29T15:18:25.409Z,28.01
2022-07-29T15:21:28.693Z,27.70
2022-07-29T15:24:33.341Z,27.46
2022-07-29T15:27:36.513Z,27.14
2022-07-29T15:30:41.791Z,27.22
2022-07-29T15:33:44.622Z,26.72
2022-07-29T15:36:52.370Z,26.74
2022-07-29T15:40:00.005Z,26.84
2022-07-29T15:43:06.792Z,26.93
2022-07-29T15:46:27.222Z,26.94
2022-07-29T15:49:48.245Z,26.86
2022-07-29T15:52:52.253Z,26.81
2022-07-29T15:55:56.514Z,26.50
2022-07-29T15:58:59.350Z,26.47
2022-07-29T16:02:03.882Z,26.71
2022-07-29T16:05:09.291Z,26.07
2022-07-29T16:08:12.676Z,26.22
2022-07-29T16:11:16.843Z,26.29
2022-07-29T16:14:19.727Z,26.03
2022-07-29T16:17:22.611Z,25.86
2022-07-29T16:20:25.486Z,26.00
2022-07-29T16:23:29.589Z,25.59
2022-07-29T16:26:34.137Z,25.65
2022-07-29T16:29:37.748Z,25.22
2022-07-29T16:32:40.731Z,25.37
2022-07-29T16:35:43.497Z,25.11
2022-07-29T16:38:47.229Z,25.13
2022-07-29T16:41:51.849Z,24.99
2022-07-29T16:44:54.548Z,24.57
2022-07-29T16:48:01.233Z,24.74
2022-07-29T16:51:04.284Z,24.94
2022-07-29T16:54:08.957Z,23.99
2022-07-29T16:57:13.049Z,24.23
2022-07-29T17:00:16.945Z,23.39
2022-07-29T17:03:20.124Z,23.84
2022-07-29T17:06:22.927Z,24.03
2022-07-29T17:09:25.799Z,23.41
2022-07-29T17:12:29.992Z,23.08
2022-07-29T17:15:32.731Z,23.09
2022-07-29T17:18:39.131Z,23.22
2022-07-29T17:21:48.384Z,23.00
2022-07-29T17:24:52.260Z,22.30
2022-07-29T17:28:00.728Z,22.16
2022-07-29T17:31:04.052Z,22.27
2022-07-29T17:34:08.810Z,22.10
2022-07-29T17:37:12.766Z,22.03
2022-07-29T17:40:15.563Z,22.84
2022-07-29T17:43:19.713Z,21.86
2022-07-29T17:46:24.753Z,21.84
2022-07-29T17:49:28.207Z,21.87
2022-07-29T17:52:31.197Z,21.88
2022-07-29T17:55:33.915Z,22.36
2022-07-29T17:58:38.972Z,22.06
2022-07-29T18:01:44.700Z,21.52
2022-07-29T18:04:50.595Z,21.43
2022-07-29T18:07:55.787Z,21.62
2022-07-29T18:10:58.607Z,21.13
2022-07-29T18:14:02.793Z,21.01
2022-07-29T18:17:05.618Z,21.00
2022-07-29T18:20:10.031Z,20.96
2022-07-29T18:23:13.041Z,20.86
2022-07-29T18:26:16.127Z,20.56
2022-07-29T18:29:20.326Z,20.35
2022-07-29T18:32:29.104Z,20.24
2022-07-29T18:35:32.441Z,20.35
2022-07-29T18:38:35.172Z,20.08
2022-07-29T18:41:50.426Z,19.94
2022-07-29T18:44:57.592Z,20.00
2022-07-29T18:48:05.499Z,20.15
2022-07-29T18:51:09.880Z,19.88
2022-07-29T18:54:12.898Z,19.76
2022-07-29T18:57:53.722Z,19.18
2022-07-29T19:00:40.139Z,19.53
2022-07-29T19:03:44.271Z,19.28
2022-07-29T19:06:47.448Z,19.22
2022-07-29T19:09:50.350Z,19.00
2022-07-29T19:12:53.110Z,19.14
2022-07-29T19:15:58.974Z,19.21
2022-07-29T19:19:02.509Z,19.04
2022-07-29T19:22:07.338Z,18.97
2022-07-29T19:25:11.404Z,19.03
2022-07-29T19:28:14.277Z,18.74
2022-07-29T19:31:18.735Z,18.74
2022-07-29T19:34:21.697Z,18.76
2022-07-29T19:37:25.315Z,18.64
2022-07-29T19:40:28.874Z,18.68
2022-07-29T19:43:51.728Z,18.41
2022-07-29T19:46:56.601Z,18.40
2022-07-29T19:50:01.129Z,18.03
2022-07-29T19:53:03.897Z,18.15
2022-07-29T19:56:08.799Z,17.94
2022-07-29T19:59:12.367Z,18.17
2022-07-29T20:02:17.232Z,17.91
2022-07-29T20:05:20.083Z,17.61
2022-07-29T20:08:24.132Z,17.13
2022-07-29T20:11:30.801Z,17.01
2022-07-29T20:14:33.620Z,16.85
2022-07-29T20:17:39.978Z,16.79
2022-07-29T20:20:43.483Z,16.79
2022-07-29T20:23:46.558Z,16.92
2022-07-29T20:26:49.918Z,16.94
2022-07-29T20:29:52.660Z,16.81
2022-07-29T20:32:56.854Z,16.80
2022-07-29T20:35:59.514Z,16.76
2022-07-29T20:39:02.308Z,16.51
2022-07-29T20:42:05.920Z,16.73
2022-07-29T20:45:09.535Z,16.73
2022-07-29T20:48:13.931Z,16.75
2022-07-29T20:51:16.680Z,16.60
2022-07-29T20:54:19.434Z,16.52
2022-07-29T20:57:38.508Z,16.32
2022-07-29T21:00:42.393Z,16.25
2022-07-29T21:03:46.561Z,16.21
2022-07-29T21:06:49.515Z,16.25
2022-07-29T21:09:52.212Z,16.27
2022-07-29T21:12:55.424Z,16.15
2022-07-29T21:16:03.372Z,16.11
2022-07-29T21:19:09.645Z,16.02
2022-07-29T21:22:12.634Z,16.07
2022-07-29T21:25:15.452Z,15.87
2022-07-29T21:28:30.587Z,15.88
2022-07-29T21:31:33.350Z,15.83
2022-07-29T21:34:37.547Z,15.74
2022-07-29T21:37:43.571Z,15.83
2022-07-29T21:40:46.740Z,15.77
2022-07-29T21:43:49.491Z,15.54
2022-07-29T21:46:52.207Z,15.81
2022-07-29T21:49:56.387Z,16.14
2022-07-29T21:52:59.292Z,16.36
2022-07-29T21:56:02.101Z,16.30
2022-07-29T21:59:04.972Z,16.32
2022-07-29T22:02:12.696Z,16.32
2022-07-29T22:05:16.855Z,15.85
2022-07-29T22:08:19.767Z,16.29
2022-07-29T22:11:22.542Z,15.94
2022-07-29T22:14:25.261Z,16.42
2022-07-29T22:17:28.360Z,16.31
2022-07-29T22:20:32.606Z,16.06
2022-07-29T22:23:35.651Z,16.14
2022-07-29T22:26:38.646Z,16.46
2022-07-29T22:29:41.868Z,16.00
2022-07-29T22:32:44.688Z,16.02
2022-07-29T22:35:49.213Z,16.13
2022-07-29T22:38:52.233Z,15.97
2022-07-29T22:41:55.043Z,16.05
2022-07-29T22:44:57.893Z,16.12
2022-07-29T22:48:00.596Z,16.11
2022-07-29T22:51:04.761Z,16.01
2022-07-29T22:54:07.634Z,16.32
2022-07-29T22:57:10.525Z,16.32
2022-07-29T23:00:14.817Z,16.23
2022-07-29T23:03:17.601Z,15.92
2022-07-29T23:06:21.720Z,16.02
2022-07-29T23:09:24.427Z,16.24
2022-07-29T23:12:27.309Z,15.98
2022-07-29T23:15:30.199Z,15.69
2022-07-29T23:18:34.550Z,15.86
2022-07-29T23:21:40.629Z,15.73
2022-07-29T23:24:43.482Z,15.68
2022-07-29T23:27:47.976Z,15.89
2022-07-29T23:30:51.136Z,15.65
2022-07-29T23:33:54.305Z,15.85
2022-07-29T23:36:59.189Z,15.69
2022-07-29T23:40:02.092Z,15.81
2022-07-29T23:43:06.024Z,15.95
2022-07-29T23:46:11.842Z,15.35
2022-07-29T23:49:14.854Z,15.85
2022-07-29T23:52:19.244Z,15.82
2022-07-29T23:55:36.479Z,16.02
2022-07-29T23:58:42.213Z,15.53
